Portada
METAR-TAF:

METAR-TAF

Aeroports :

Dalian, Xina

latitud: 38-54N, longitud: 121-38E, altitud: 97 m

Observació

L'informe es va fer fa 33 minuts, a les 03:00 UTC
Vent 10 kt del Nord, variant entre Nord-Oest i Nord/Nord-Est
Temperatura 13°C
Humitat 30%
Pressió 1034 hPa
Visibilitat 10 km o més
sense núvols per sota de 1500 mi sense presència de cumulonimbus.

METAR: ZYTL 150300Z 35005MPS 310V030 CAVOK 13/M04 Q1034 NOSIG

Hora: 11:33 (03:33 UTC)

Pronòstic

L'informe es va fer fa 8 hores i 20 minuts, a les 19:13 UTC
Pronòstic vàlid del 15 a les 00 UTC al 15 a les 24 UTC
Vent 8 kt del Nord
Visibilitat 10 km o més
sense núvols per sota de 1500 mi sense presència de cumulonimbus.
Evolucionant progressivament
l' 15 a les 11 UTC al 15 a les 12 UTC
Vent 8 kt del Oest

TAF: ZYTL 141913Z 1500/1524 35004MPS CAVOK TX13/1506Z TN06/1522Z BECMG 1511/1512 26004MPS

Observacions i pronòstics meteorològics de més de 4000 aeroports (METAR i TAF).

Les estacions disponibles són els punts grocs i vermells al mapa.

Posi el ratolí al punt desitjat per veure el nom de l'estació.

Feu clic per veure les observacions i els pronòstics meteorològics.

Per canviar el mapa: feu clic els botons verds amb una creu de color negre per apropar; al botó verd amb un guió per allunyar la imatge; o en les fletxes verdes per a mapes adjacents.


METAR-TAF: